+43 3833 8250 0 office@segelflug.at

Wetter

ACHTUNG: Die hier angeboten Wetter-Informationen sind nicht geeicht und dürfen für Flugvorbereitungen nicht verwendet werden
ACG Flugwetter

METAR/TAF LOXZ

LOXZ 211950Z 22003KT 10KM -RA FEW010ST SCT050SC OVC100AS 17/16 Q1015

TAF LOXZ 181415Z 1812/1824 CNL

METAR/TAF LOXA

LOXA 100820Z VRB02KT 50KM FEW120AC SCT300CI 17/13 Q1021 NOSIG RMK SCT

TAF TAF LOXA 090515Z 0906/0918 VRB03KT 0500 FG SCT060 BECMG 0906/0908 9999 NSW FEW060 BECMG 0909/0911 04007KT TEMPO 0910/0915 SCT060 BKN100

METAR/TAF LOWG 

LOWG 212020Z AUTO VRB03KT 9999 -SHRA //////CB FEW038 SCT050 BKN110 18/17 Q1014 TEMPO SHRA

TAF TAF AMD LOWG 211731Z 2118/2218 32006KT 9999 FEW050 BKN100 TX24/2118Z TN14/2206Z TEMPO 2118/2122 34025G35KT 2000 +TSRA SCT030CB BKN060 TEMPO 2122/2207 34010G20KT -RA FEW050 BKN080 PROB30 TEMPO 2200/2204 RA BECMG 2207/2209 02006KT FEW050 BKN090 TEMPO 2213/2218 34010G20KT CAVOK

(Information der letzten Stunde)

(Information der letzten Stunde)

Dichtehöhe (in LOGT)
Temperatur / Windchill der letzten 10 Tage

Ext. Links zu Wetterdiensten

ALDIS

Öster.- Unwetterzentrale